Time;durP1;ratioP1;P1;durP2;ratioP2;P2;SDS_P1;SDS_P2;PMS_P1;PMS_P2;Temp;Humidity;BMP_temperature;BMP_pressure;BME280_temperature;BME280_humidity;BME280_pressure;Samples;Min_cycle;Max_cycle;Signal;HPM_P1;HPM_P2
2022/04/17 00:00:48;;;;;;;37.22;18.20;;;;;;;11.12;100.00;101912.94;5065604;28;20053;-85
2022/04/17 00:03:14;;;;;;;42.42;18.85;;;;;;;11.08;100.00;101880.69;5054104;28;20475;-84
2022/04/17 00:05:41;;;;;;;39.13;19.30;;;;;;;11.37;100.00;101927.28;5069309;28;20044;-84
2022/04/17 00:08:08;;;;;;;33.35;14.40;;;;;;;11.39;100.00;101912.34;5072192;28;20053;-84
2022/04/17 00:10:35;;;;;;;40.75;19.08;;;;;;;11.33;100.00;101898.50;5072556;28;20051;-84
2022/04/17 00:13:03;;;;;;;34.80;15.50;;;;;;;11.49;100.00;101917.38;5072381;28;20048;-84
2022/04/17 00:15:29;;;;;;;43.85;19.17;;;;;;;11.21;100.00;101897.91;5072456;28;20048;-84
2022/04/17 00:17:56;;;;;;;35.55;17.00;;;;;;;11.14;100.00;101908.56;5072742;28;20052;-84
2022/04/17 00:20:23;;;;;;;48.00;18.05;;;;;;;11.08;100.00;101880.69;5071708;28;20406;-84
2022/04/17 00:22:50;;;;;;;45.67;20.60;;;;;;;10.84;100.00;101887.31;5072196;28;20059;-84
2022/04/17 00:25:18;;;;;;;42.35;19.05;;;;;;;10.74;100.00;101870.91;5072161;28;20055;-84
2022/04/17 00:27:45;;;;;;;49.92;24.52;;;;;;;10.75;100.00;101883.13;5071583;28;20128;-85
2022/04/17 00:30:12;;;;;;;41.33;19.13;;;;;;;10.86;100.00;101889.91;5071301;28;20063;-85
2022/04/17 00:32:39;;;;;;;42.00;19.65;;;;;;;10.90;100.00;101883.72;5072355;28;20048;-84
2022/04/17 00:35:07;;;;;;;52.05;23.33;;;;;;;10.77;100.00;101849.91;5072097;28;20059;-85
2022/04/17 00:37:34;;;;;;;40.28;18.80;;;;;;;10.84;100.00;101910.91;5072395;28;20056;-84
2022/04/17 00:40:01;;;;;;;44.28;19.05;;;;;;;11.08;100.00;101912.16;5071811;28;20041;-84
2022/04/17 00:42:28;;;;;;;38.90;17.80;;;;;;;10.75;100.00;101898.00;5066086;28;20062;-85
2022/04/17 00:44:55;;;;;;;45.10;22.25;;;;;;;10.67;100.00;101886.81;5071973;28;20160;-85
2022/04/17 00:47:22;;;;;;;36.17;18.75;;;;;;;10.59;100.00;101866.84;5076880;28;20048;-85
2022/04/17 00:49:49;;;;;;;54.78;22.92;;;;;;;10.79;100.00;101879.56;5072016;28;20048;-84
2022/04/17 00:52:16;;;;;;;37.45;17.08;;;;;;;10.56;100.00;101868.69;5071346;28;20056;-84
2022/04/17 00:54:45;;;;;;;43.45;20.33;;;;;;;10.54;100.00;101852.13;5071333;28;20592;-84
2022/04/17 00:57:15;;;;;;;46.00;22.30;;;;;;;10.99;100.00;101900.09;5071041;28;20520;-84
2022/04/17 00:59:44;;;;;;;35.47;17.85;;;;;;;10.57;100.00;101849.44;5070548;28;20048;-84
2022/04/17 01:02:14;;;;;;;41.53;19.98;;;;;;;10.77;100.00;101888.34;5070498;28;20049;-84
2022/04/17 01:04:41;;;;;;;44.85;20.38;;;;;;;10.76;100.00;101886.59;5071875;28;20064;-84
2022/04/17 01:07:10;;;;;;;52.97;21.52;;;;;;;10.36;100.00;101837.66;5073125;28;20052;-84
2022/04/17 01:09:38;;;;;;;43.05;18.33;;;;;;;10.83;100.00;101885.59;5073403;28;20040;-84
2022/04/17 01:12:09;;;;;;;42.33;19.15;;;;;;;10.51;100.00;101879.22;5073801;28;20047;-84
2022/04/17 01:14:38;;;;;;;40.45;17.98;;;;;;;10.75;100.00;101893.63;5079208;28;20464;-84
2022/04/17 01:17:05;;;;;;;41.60;17.83;;;;;;;10.38;100.00;101846.34;5072477;28;20052;-84
2022/04/17 01:19:37;;;;;;;41.78;19.92;;;;;;;10.66;100.00;101888.56;5070911;28;20055;-84
2022/04/17 01:22:06;;;;;;;48.75;23.42;;;;;;;10.63;100.00;101896.47;5070860;28;20731;-84
2022/04/17 01:27:19;;;;;;;46.10;21.85;;;;;;;10.72;100.00;101887.56;5070540;28;20402;-84
2022/04/17 01:29:47;;;;;;;39.35;18.27;;;;;;;10.75;100.00;101875.28;5070710;28;20059;-84
2022/04/17 01:32:15;;;;;;;39.97;18.75;;;;;;;10.42;100.00;101842.75;5070521;28;20053;-84
2022/04/17 01:34:42;;;;;;;40.53;20.30;;;;;;;10.52;100.00;101873.13;5072200;28;20128;-84
2022/04/17 01:37:10;;;;;;;42.35;20.20;;;;;;;10.51;100.00;101833.84;5070927;28;20056;-84
2022/04/17 01:39:37;;;;;;;40.53;19.55;;;;;;;10.54;100.00;101828.56;5057122;28;20040;-84
2022/04/17 01:42:04;;;;;;;52.35;23.52;;;;;;;10.53;100.00;101869.59;5064302;28;20047;-84
2022/04/17 01:44:31;;;;;;;32.78;15.70;;;;;;;10.55;100.00;101827.66;5049833;28;20080;-84
2022/04/17 01:46:59;;;;;;;34.17;16.02;;;;;;;10.78;100.00;101850.75;5051650;28;20468;-84
2022/04/17 01:49:26;;;;;;;32.92;16.95;;;;;;;10.50;100.00;101808.56;5054364;28;20040;-84
2022/04/17 01:51:53;;;;;;;44.97;20.42;;;;;;;10.45;100.00;101840.94;5072121;28;20056;-85
2022/04/17 01:54:25;;;;;;;34.10;17.23;;;;;;;10.67;100.00;101834.41;5072289;28;20486;-84
2022/04/17 01:56:53;;;;;;;43.42;19.38;;;;;;;10.55;100.00;101866.94;5070651;28;20051;-85
2022/04/17 01:59:21;;;;;;;36.47;17.35;;;;;;;10.77;100.00;101870.00;5070607;28;20053;-84
2022/04/17 02:01:49;;;;;;;31.20;15.27;;;;;;;10.53;100.00;101826.81;5071626;28;20045;-84
2022/04/17 02:04:16;;;;;;;38.58;19.33;;;;;;;10.80;100.00;101849.84;5070977;28;20127;-84
2022/04/17 02:06:44;;;;;;;31.75;15.52;;;;;;;10.80;100.00;101860.34;5072216;28;20106;-84
2022/04/17 02:09:15;;;;;;;34.88;16.80;;;;;;;10.52;100.00;101849.53;5070481;28;20138;-84
2022/04/17 02:11:43;;;;;;;41.42;21.95;;;;;;;9.94;100.00;101786.03;5067000;28;20119;-84
2022/04/17 02:14:10;;;;;;;47.90;25.63;;;;;;;9.96;100.00;101831.34;5049761;28;20049;-84
2022/04/17 02:16:37;;;;;;;38.85;20.30;;;;;;;10.33;100.00;101845.56;5050366;28;20049;-85
2022/04/17 02:19:05;;;;;;;36.55;16.65;;;;;;;10.52;100.00;101843.44;5052812;28;20053;-85
2022/04/17 02:21:31;;;;;;;41.58;19.75;;;;;;;10.41;100.00;101852.38;5071552;28;20051;-84
2022/04/17 02:24:01;;;;;;;35.92;20.08;;;;;;;10.23;100.00;101816.03;5070466;28;20049;-84
2022/04/17 02:26:28;;;;;;;46.45;23.42;;;;;;;10.17;100.00;101827.47;5070129;28;20508;-84
2022/04/17 02:28:58;;;;;;;35.08;16.50;;;;;;;10.17;100.00;101792.59;5070446;28;20155;-84
2022/04/17 02:31:26;;;;;;;42.92;18.73;;;;;;;10.19;100.00;101816.97;5071167;28;20058;-84
2022/04/17 02:33:54;;;;;;;37.67;20.58;;;;;;;10.20;100.00;101819.56;5070121;28;20040;-84
2022/04/17 02:36:21;;;;;;;36.63;18.70;;;;;;;10.26;100.00;101803.75;5070712;28;20040;-84
2022/04/17 02:38:47;;;;;;;43.72;19.52;;;;;;;10.47;100.00;101824.34;5070600;28;20135;-85
2022/04/17 02:41:14;;;;;;;37.17;19.55;;;;;;;10.41;100.00;101823.56;5069891;28;20049;-84
2022/04/17 02:43:41;;;;;;;36.88;18.02;;;;;;;10.22;100.00;101786.38;5068164;28;20054;-84
2022/04/17 02:46:08;;;;;;;34.47;16.88;;;;;;;9.83;100.00;101769.69;5051070;28;20045;-84
2022/04/17 02:48:35;;;;;;;37.78;18.17;;;;;;;9.81;100.00;101782.78;5068216;28;20117;-83
2022/04/17 02:51:02;;;;;;;41.90;20.20;;;;;;;10.11;100.00;101818.88;5072618;28;20056;-84
2022/04/17 02:53:33;;;;;;;37.45;19.15;;;;;;;10.23;100.00;101819.53;5070411;28;20066;-84
2022/04/17 02:56:00;;;;;;;67.85;33.35;;;;;;;9.98;100.00;101798.16;5071451;28;20052;-84
2022/04/17 02:58:28;;;;;;;44.00;19.98;;;;;;;10.38;100.00;101825.38;5070093;28;20083;-84
2022/04/17 03:06:25;;;;;;;32.03;14.90;;;;;;;10.36;100.00;101759.13;5073215;28;20049;-84
2022/04/17 03:08:52;;;;;;;43.13;20.90;;;;;;;10.17;100.00;101750.72;5073604;28;20135;-84
2022/04/17 03:11:19;;;;;;;40.22;19.45;;;;;;;10.22;100.00;101759.34;5053626;28;20047;-85
2022/04/17 03:13:47;;;;;;;36.35;19.50;;;;;;;10.05;100.00;101764.91;5053637;28;20135;-84
2022/04/17 03:16:15;;;;;;;41.30;19.83;;;;;;;10.29;100.00;101775.78;5054306;28;20052;-84
2022/04/17 03:18:42;;;;;;;35.20;16.63;;;;;;;10.29;100.00;101757.44;5054826;28;20053;-84
2022/04/17 03:21:10;;;;;;;44.20;20.77;;;;;;;9.82;100.00;101739.16;5073742;28;20052;-84
2022/04/17 03:23:36;;;;;;;39.10;17.70;;;;;;;10.01;100.00;101752.78;5073875;28;20049;-84
2022/04/17 03:26:03;;;;;;;39.03;17.33;;;;;;;10.25;100.00;101782.81;5074966;28;20052;-84
2022/04/17 03:28:30;;;;;;;58.20;23.02;;;;;;;10.33;100.00;101803.66;5073590;28;20045;-84
2022/04/17 03:30:57;;;;;;;51.30;24.05;;;;;;;10.07;100.00;101786.66;5073497;28;20056;-84
2022/04/17 03:33:23;;;;;;;32.03;17.33;;;;;;;10.31;100.00;101790.59;5073139;28;20044;-82
2022/04/17 03:35:50;;;;;;;50.60;21.10;;;;;;;10.20;100.00;101762.00;5074954;28;20059;-82
2022/04/17 03:38:17;;;;;;;47.60;22.92;;;;;;;10.39;100.00;101793.94;5074994;28;20139;-82
2022/04/17 03:40:44;;;;;;;45.83;18.63;;;;;;;10.25;100.00;101754.03;5074407;28;20054;-83
2022/04/17 03:43:11;;;;;;;40.42;18.02;;;;;;;10.15;100.00;101768.22;5074649;28;20051;-83
2022/04/17 03:45:37;;;;;;;57.05;24.48;;;;;;;10.06;100.00;101766.63;5074025;28;20053;-83
2022/04/17 03:48:05;;;;;;;50.47;20.40;;;;;;;9.94;100.00;101746.78;5074643;28;20075;-83
2022/04/17 03:50:32;;;;;;;57.75;24.98;;;;;;;9.75;100.00;101732.31;5075158;28;20477;-83
2022/04/17 03:52:59;;;;;;;57.63;24.30;;;;;;;9.93;100.00;101767.75;5074889;28;20053;-82
2022/04/17 03:55:26;;;;;;;42.33;17.77;;;;;;;9.93;100.00;101765.13;5073425;28;20055;-84
2022/04/17 03:57:52;;;;;;;49.63;21.70;;;;;;;10.13;100.00;101773.47;5073507;28;20497;-84
2022/04/17 04:00:19;;;;;;;40.25;19.85;;;;;;;9.74;100.00;101726.25;5073840;28;20044;-84
2022/04/17 04:02:49;;;;;;;43.45;19.85;;;;;;;10.07;100.00;101768.34;5072388;28;20041;-84
2022/04/17 04:05:15;;;;;;;43.95;19.42;;;;;;;9.96;100.00;101752.00;5074281;28;20106;-85
2022/04/17 04:07:42;;;;;;;37.90;18.05;;;;;;;9.94;100.00;101723.25;5074180;28;20049;-85
2022/04/17 04:10:10;;;;;;;34.40;16.90;;;;;;;10.40;100.00;101779.09;5080899;28;20048;-85
2022/04/17 04:12:37;;;;;;;36.70;17.63;;;;;;;10.35;100.00;101780.94;5081478;28;20045;-85
2022/04/17 04:15:06;;;;;;;40.95;16.58;;;;;;;10.23;100.00;101759.31;5073279;28;20047;-84
2022/04/17 04:17:34;;;;;;;31.88;15.02;;;;;;;10.26;100.00;101750.53;5072148;28;20058;-84
2022/04/17 04:20:02;;;;;;;29.95;14.40;;;;;;;10.44;100.00;101765.03;5071861;28;20048;-84
2022/04/17 04:22:29;;;;;;;35.38;15.55;;;;;;;10.37;100.00;101766.06;5073276;28;20044;-84
2022/04/17 04:24:55;;;;;;;34.22;16.95;;;;;;;10.18;100.00;101723.63;5073472;28;20500;-84
2022/04/17 04:30:09;;;;;;;44.33;22.55;;;;;;;10.08;100.00;101725.59;5072798;28;20045;-84
2022/04/17 04:32:36;;;;;;;47.53;24.60;;;;;;;10.20;100.00;101734.97;5071408;28;20041;-84
2022/04/17 04:35:04;;;;;;;34.35;15.75;;;;;;;10.24;100.00;101708.69;5071816;28;20699;-84
2022/04/17 04:37:32;;;;;;;34.60;18.25;;;;;;;10.39;100.00;101725.88;5072496;28;20088;-85
2022/04/17 04:39:59;;;;;;;32.90;16.20;;;;;;;10.52;100.00;101709.91;5072074;28;20151;-84
2022/04/17 04:42:27;;;;;;;29.58;15.68;;;;;;;10.83;100.00;101755.44;5062499;28;20831;-85
2022/04/17 04:47:40;;;;;;;40.22;18.55;;;;;;;10.81;100.00;101744.16;5072627;28;20087;-85
2022/04/17 04:50:07;;;;;;;26.52;14.20;;;;;;;10.83;100.00;101720.53;5071450;28;20080;-85
2022/04/17 04:52:35;;;;;;;29.20;12.85;;;;;;;11.07;100.00;101728.75;5072939;28;20045;-85
2022/04/17 04:55:06;;;;;;;29.42;15.27;;;;;;;11.18;100.00;101726.72;5071321;28;20059;-84
2022/04/17 04:57:35;;;;;;;30.98;13.50;;;;;;;10.91;100.00;101725.63;5053347;28;20057;-84
2022/04/17 05:00:07;;;;;;;44.78;19.23;;;;;;;11.13;100.00;101757.41;5061691;28;20131;-85
2022/04/17 05:02:34;;;;;;;31.20;16.45;;;;;;;11.26;100.00;101761.47;5061182;28;20049;-85
2022/04/17 05:05:01;;;;;;;34.80;16.35;;;;;;;11.35;100.00;101756.00;5051401;28;20045;-85
2022/04/17 05:07:28;;;;;;;26.80;13.40;;;;;;;11.38;100.00;101755.06;5071678;28;20131;-85
2022/04/17 05:09:55;;;;;;;27.13;13.15;;;;;;;11.35;100.00;101721.03;5071160;28;20083;-85
2022/04/17 05:12:22;;;;;;;23.77;11.43;;;;;;;11.36;100.00;101731.50;5064720;28;20050;-85
2022/04/17 05:14:49;;;;;;;34.30;17.58;;;;;;;11.17;100.00;101727.59;5071478;28;20427;-85
2022/04/17 05:17:16;;;;;;;29.10;13.90;;;;;;;11.19;100.00;101724.06;5058061;28;20052;-85
2022/04/17 05:19:43;;;;;;;23.70;12.65;;;;;;;11.59;100.00;101770.25;5070510;28;20142;-85
2022/04/17 05:22:15;;;;;;;32.35;15.13;;;;;;;11.34;100.00;101754.28;5061559;28;20086;-85
2022/04/17 05:24:44;;;;;;;19.52;10.02;;;;;;;11.46;100.00;101768.84;5069823;28;20135;-85
2022/04/17 05:27:12;;;;;;;30.85;14.60;;;;;;;11.15;100.00;101711.06;5066247;28;20048;-85
2022/04/17 05:29:40;;;;;;;25.58;12.45;;;;;;;11.50;100.00;101753.91;5071674;28;20504;-85
2022/04/17 05:32:07;;;;;;;24.48;11.93;;;;;;;11.51;100.00;101758.22;5070564;28;20467;-85
2022/04/17 05:34:35;;;;;;;27.27;13.80;;;;;;;11.24;100.00;101738.81;5069933;28;20731;-85
2022/04/17 05:37:03;;;;;;;26.80;12.48;;;;;;;11.54;100.00;101758.16;5070884;28;20077;-85
2022/04/17 05:39:30;;;;;;;20.45;10.20;;;;;;;11.68;100.00;101760.44;5071497;28;20063;-85
2022/04/17 05:42:00;;;;;;;20.50;10.63;;;;;;;11.31;100.00;101728.13;5070194;28;20470;-85
2022/04/17 05:44:28;;;;;;;23.75;12.80;;;;;;;11.21;100.00;101689.94;5064926;28;20041;-84
2022/04/17 05:46:56;;;;;;;18.83;10.23;;;;;;;11.72;100.00;101746.31;5063945;28;20405;-85
2022/04/17 05:49:23;;;;;;;18.95;8.73;;;;;;;11.65;100.00;101750.91;5070103;28;20045;-84
2022/04/17 05:51:50;;;;;;;24.75;10.63;;;;;;;11.39;100.00;101709.59;5071840;28;20055;-84
2022/04/17 05:54:20;;;;;;;16.90;9.43;;;;;;;11.79;100.00;101750.50;5070456;28;20051;-84
2022/04/17 05:56:47;;;;;;;18.80;9.57;;;;;;;11.46;100.00;101712.94;5071444;28;20394;-83
2022/04/17 05:59:13;;;;;;;20.00;9.77;;;;;;;11.53;100.00;101733.69;5070630;28;20044;-82
2022/04/17 06:01:40;;;;;;;19.90;9.13;;;;;;;11.49;100.00;101720.69;5070339;28;20062;-83
2022/04/17 06:04:07;;;;;;;20.42;9.50;;;;;;;11.45;100.00;101709.41;5071007;28;20051;-82
2022/04/17 06:06:34;;;;;;;21.67;10.13;;;;;;;11.55;100.00;101739.75;5071077;28;20048;-83
2022/04/17 06:09:02;;;;;;;16.73;8.13;;;;;;;11.70;100.00;101719.28;5073263;28;20048;-82
2022/04/17 06:11:29;;;;;;;16.08;8.02;;;;;;;11.58;100.00;101710.84;5071814;28;20048;-83
2022/04/17 06:13:56;;;;;;;14.43;7.70;;;;;;;11.63;100.00;101710.69;5067257;28;20135;-83
2022/04/17 06:16:22;;;;;;;15.77;7.95;;;;;;;11.73;100.00;101708.72;5066814;28;20210;-83
2022/04/17 06:18:49;;;;;;;24.98;10.35;;;;;;;11.79;100.00;101732.13;5071797;28;20672;-83
2022/04/17 06:21:18;;;;;;;18.25;8.20;;;;;;;12.08;100.00;101743.66;5070417;28;20045;-83
2022/04/17 06:23:46;;;;;;;18.60;7.93;;;;;;;12.26;100.00;101739.66;5069942;28;20133;-83
2022/04/17 06:26:13;;;;;;;18.23;8.65;;;;;;;12.09;100.00;101740.13;5071304;28;20045;-83
2022/04/17 06:28:40;;;;;;;17.88;8.57;;;;;;;11.91;100.00;101744.13;5070278;28;20113;-83
2022/04/17 06:31:07;;;;;;;16.52;8.45;;;;;;;11.95;100.00;101727.38;5069281;28;20058;-83
2022/04/17 06:33:34;;;;;;;15.70;7.60;;;;;;;11.95;100.00;101693.25;5070389;28;20048;-83
2022/04/17 06:36:01;;;;;;;18.85;8.18;;;;;;;12.05;100.00;101693.88;5072955;28;20044;-83
2022/04/17 06:38:28;;;;;;;14.40;7.03;;;;;;;11.93;100.00;101680.19;5074364;28;20044;-83
2022/04/17 06:40:55;;;;;;;15.07;7.57;;;;;;;12.37;100.00;101726.22;5073755;28;20083;-83
2022/04/17 06:43:22;;;;;;;18.27;6.55;;;;;;;12.28;100.00;101711.59;5057206;28;20049;-83
2022/04/17 06:45:49;;;;;;;16.77;7.40;;;;;;;12.22;100.00;101696.88;5072050;28;20059;-83
2022/04/17 06:48:18;;;;;;;16.92;7.38;;;;;;;12.37;100.00;101713.06;5075102;28;20083;-83
2022/04/17 06:50:47;;;;;;;20.00;9.68;;;;;;;12.44;100.00;101712.00;5073556;28;20055;-83
2022/04/17 06:53:14;;;;;;;19.35;8.00;;;;;;;12.49;100.00;101695.19;5073021;28;20044;-83
2022/04/17 06:55:41;;;;;;;15.52;6.95;;;;;;;12.62;100.00;101715.81;5075523;28;20439;-83
2022/04/17 06:58:08;;;;;;;15.38;7.93;;;;;;;12.39;100.00;101675.34;5074390;28;20052;-83
2022/04/17 07:00:36;;;;;;;17.48;7.57;;;;;;;12.68;100.00;101708.63;5073260;28;20059;-83
2022/04/17 07:03:04;;;;;;;15.25;7.63;;;;;;;12.66;100.00;101714.81;5074188;28;20127;-83
2022/04/17 07:05:31;;;;;;;14.98;7.63;;;;;;;12.49;100.00;101686.44;5074130;28;20048;-83
2022/04/17 07:08:00;;;;;;;15.52;6.75;;;;;;;12.45;100.00;101677.81;5073854;28;20062;-83
2022/04/17 07:10:29;;;;;;;15.13;6.78;;;;;;;12.81;100.00;101698.56;5078317;28;20053;-83
2022/04/17 07:12:56;;;;;;;17.90;6.38;;;;;;;12.85;100.00;101676.53;5076494;28;20501;-83
2022/04/17 07:15:24;;;;;;;12.95;5.90;;;;;;;13.02;100.00;101688.28;5074387;28;20052;-83
2022/04/17 07:17:52;;;;;;;13.77;5.40;;;;;;;12.91;100.00;101651.84;5074206;28;20045;-83
2022/04/17 07:20:20;;;;;;;14.85;6.50;;;;;;;13.00;100.00;101669.94;5073339;28;20409;-83
2022/04/17 07:22:47;;;;;;;14.65;6.40;;;;;;;13.31;100.00;101708.38;5066342;28;20047;-83
2022/04/17 07:25:19;;;;;;;16.05;7.05;;;;;;;13.34;100.00;101707.44;5071336;28;20048;-83
2022/04/17 07:27:48;;;;;;;12.48;5.82;;;;;;;13.58;100.00;101689.94;5061661;28;20045;-83
2022/04/17 07:30:23;;;;;;;20.15;6.30;;;;;;;13.41;100.00;101678.22;5070480;28;20052;-83
2022/04/17 07:32:54;;;;;;;10.63;4.90;;;;;;;13.79;100.00;101702.38;5066995;28;20048;-83
2022/04/17 07:35:22;;;;;;;9.68;4.22;;;;;;;13.63;100.00;101685.38;5073995;28;20074;-84
2022/04/17 07:38:00;;;;;;;10.38;4.50;;;;;;;13.58;100.00;101709.25;5062354;28;20558;-83
2022/04/17 07:40:29;;;;;;;16.67;6.80;;;;;;;13.57;100.00;101699.59;5077283;28;20478;-83
2022/04/17 07:42:59;;;;;;;13.68;5.57;;;;;;;13.92;100.00;101708.03;5053583;28;20041;-84
2022/04/17 07:45:28;;;;;;;9.43;3.83;;;;;;;13.94;100.00;101665.88;5054276;28;20502;-83
2022/04/17 07:47:54;;;;;;;9.35;4.07;;;;;;;14.22;100.00;101686.75;5071257;28;20064;-84
2022/04/17 07:50:24;;;;;;;10.57;4.63;;;;;;;14.32;100.00;101701.28;5068626;28;20045;-83
2022/04/17 07:52:52;;;;;;;8.65;3.75;;;;;;;14.13;100.00;101694.97;5073561;28;20055;-83
2022/04/17 07:55:19;;;;;;;13.13;5.07;;;;;;;14.22;100.00;101705.19;5069874;28;20076;-84
2022/04/17 08:00:45;;;;;;;15.70;4.80;;;;;;;14.44;100.00;101682.38;5070904;28;20486;-83
2022/04/17 08:05:59;;;;;;;11.15;3.75;;;;;;;14.41;100.00;101666.69;5059823;28;20471;-84
2022/04/17 08:08:25;;;;;;;12.38;3.95;;;;;;;14.99;100.00;101697.78;5072555;28;20052;-84
2022/04/17 08:10:52;;;;;;;9.23;3.63;;;;;;;14.63;100.00;101688.75;5068806;28;20054;-84
2022/04/17 08:13:19;;;;;;;14.05;4.38;;;;;;;14.80;100.00;101687.16;5071812;28;20044;-84
2022/04/17 08:15:46;;;;;;;11.77;3.40;;;;;;;15.21;100.00;101690.78;5063798;28;20052;-84
2022/04/17 08:18:13;;;;;;;8.77;3.13;;;;;;;15.10;100.00;101678.03;5073387;28;20056;-84
2022/04/17 08:20:40;;;;;;;8.13;3.17;;;;;;;15.13;100.00;101673.50;5068254;28;20406;-84
2022/04/17 08:23:07;;;;;;;10.73;3.20;;;;;;;15.27;100.00;101682.63;5068586;28;20076;-84
2022/04/17 08:25:34;;;;;;;7.88;3.10;;;;;;;15.06;100.00;101671.19;5089118;28;20057;-84
2022/04/17 08:28:01;;;;;;;10.15;3.33;;;;;;;15.34;100.00;101669.09;5051532;28;20049;-84
2022/04/17 08:30:30;;;;;;;10.50;4.75;;;;;;;14.96;100.00;101692.66;5064286;28;20052;-84
2022/04/17 08:33:01;;;;;;;24.02;8.90;;;;;;;14.67;100.00;101666.63;5072530;28;20530;-84
2022/04/17 08:35:29;;;;;;;18.38;8.77;;;;;;;14.51;100.00;101690.06;5060925;28;20051;-84
2022/04/17 08:38:00;;;;;;;16.70;6.85;;;;;;;14.77;100.00;101683.78;5070173;28;20406;-84
2022/04/17 08:40:28;;;;;;;16.90;7.65;;;;;;;14.63;100.00;101684.34;5064900;28;20135;-84
2022/04/17 08:42:56;;;;;;;20.75;7.60;;;;;;;14.56;100.00;101659.97;5072526;28;20054;-84
2022/04/17 08:45:24;;;;;;;18.13;7.93;;;;;;;14.50;100.00;101688.31;5072154;28;20489;-84
2022/04/17 08:47:53;;;;;;;16.38;6.60;;;;;;;14.58;100.00;101658.16;5072122;28;20136;-84
2022/04/17 08:50:20;;;;;;;19.95;7.28;;;;;;;14.19;100.00;101689.50;5060554;28;20143;-84
2022/04/17 08:52:50;;;;;;;23.48;9.40;;;;;;;13.57;100.00;101680.34;5059234;28;20052;-84
2022/04/17 08:55:17;;;;;;;17.95;7.10;;;;;;;13.56;100.00;101639.16;5071624;28;20049;-84
2022/04/17 08:57:44;;;;;;;19.40;8.55;;;;;;;13.90;100.00;101669.50;5056560;28;20052;-84
2022/04/17 09:00:16;;;;;;;26.33;8.90;;;;;;;13.36;100.00;101677.53;5070205;28;20052;-85
2022/04/17 09:02:44;;;;;;;19.98;6.57;;;;;;;13.20;100.00;101631.59;5051523;28;20049;-85
2022/04/17 09:05:12;;;;;;;20.15;6.97;;;;;;;13.43;100.00;101691.34;5065186;28;20048;-85
2022/04/17 09:07:50;;;;;;;26.30;9.07;;;;;;;13.35;100.00;101685.47;5092770;28;20051;-84
2022/04/17 09:10:28;;;;;;;14.25;6.03;;;;;;;13.96;100.00;101683.31;5078357;28;20044;-85
2022/04/17 09:12:57;;;;;;;13.50;5.68;;;;;;;14.09;100.00;101682.84;5057077;28;20053;-86
2022/04/17 09:15:30;;;;;;;13.40;4.35;;;;;;;14.22;100.00;101684.13;5068770;28;20711;-85
2022/04/17 09:17:57;;;;;;;15.48;6.07;;;;;;;13.96;100.00;101635.91;5070196;28;20052;-85
2022/04/17 09:20:25;;;;;;;15.95;5.68;;;;;;;14.12;100.00;101640.63;5063996;28;20463;-85
2022/04/17 09:22:55;;;;;;;12.40;5.28;;;;;;;13.93;100.00;101658.88;5064131;28;20052;-85
2022/04/17 09:25:23;;;;;;;13.50;5.05;;;;;;;14.34;100.00;101666.97;5071880;28;20040;-85
2022/04/17 09:27:57;;;;;;;14.20;5.95;;;;;;;14.16;100.00;101671.19;5069523;28;20045;-85
2022/04/17 09:30:25;;;;;;;18.73;6.32;;;;;;;13.90;100.00;101674.78;5068658;28;20040;-86
2022/04/17 09:32:53;;;;;;;16.92;5.78;;;;;;;14.22;100.00;101673.59;5068247;28;20048;-86
2022/04/17 09:35:26;;;;;;;20.67;7.20;;;;;;;14.10;100.00;101667.00;5069687;28;20048;-85
2022/04/17 09:37:59;;;;;;;15.82;6.38;;;;;;;14.14;100.00;101646.69;5071056;28;20397;-85
2022/04/17 09:40:27;;;;;;;17.35;6.18;;;;;;;14.01;100.00;101657.66;5069350;28;20059;-85
2022/04/17 09:43:15;;;;;;;15.52;6.63;;;;;;;13.93;100.00;101633.38;5067698;28;20055;-86
2022/04/17 09:46:05;;;;;;;18.40;6.93;;;;;;;13.74;100.00;101663.94;5062862;28;20053;-85
2022/04/17 09:48:35;;;;;;;14.35;5.57;;;;;;;13.83;100.00;101667.09;5070757;28;20121;-85
2022/04/17 09:51:20;;;;;;;18.08;5.28;;;;;;;13.85;100.00;101670.53;5070022;28;20086;-85
2022/04/17 09:53:57;;;;;;;14.20;5.88;;;;;;;13.97;100.00;101661.34;5070781;28;20119;-85
2022/04/17 09:56:34;;;;;;;12.68;4.93;;;;;;;14.21;100.00;101656.06;5061589;28;20131;-85
2022/04/17 09:59:19;;;;;;;13.73;6.10;;;;;;;14.14;100.00;101642.25;5061388;28;20048;-85
2022/04/17 10:01:47;;;;;;;14.63;5.88;;;;;;;14.22;100.00;101649.88;5060654;28;20414;-87
2022/04/17 10:04:21;;;;;;;17.52;6.72;;;;;;;14.07;100.00;101647.81;5061962;28;20048;-86
2022/04/17 10:06:57;;;;;;;15.45;5.80;;;;;;;13.93;100.00;101643.91;5064418;28;20055;-86
2022/04/17 10:09:25;;;;;;;16.38;5.80;;;;;;;13.88;100.00;101672.19;5061516;28;20051;-86
2022/04/17 10:11:56;;;;;;;15.65;7.03;;;;;;;13.71;100.00;101659.66;5059559;28;20053;-87
2022/04/17 10:14:24;;;;;;;13.85;4.85;;;;;;;14.05;100.00;101616.28;5060976;28;20055;-85
2022/04/17 10:16:55;;;;;;;9.52;3.88;;;;;;;14.68;100.00;101648.13;5060167;28;20058;-87
2022/04/17 10:19:24;;;;;;;12.63;5.82;;;;;;;14.52;100.00;101603.03;5058777;28;20040;-86
2022/04/17 10:21:52;;;;;;;11.55;4.60;;;;;;;14.89;100.00;101645.50;5068256;28;20094;-86
2022/04/17 10:24:21;;;;;;;9.32;3.90;;;;;;;14.61;100.00;101629.03;5065191;28;20487;-86
2022/04/17 10:26:49;;;;;;;14.48;5.40;;;;;;;14.27;100.00;101647.06;5058368;28;20406;-86
2022/04/17 10:29:34;;;;;;;11.02;5.20;;;;;;;14.47;100.00;101625.22;5061445;28;20070;-85
2022/04/17 10:32:28;;;;;;;12.48;5.03;;;;;;;14.81;100.00;101641.41;5065848;28;20049;-85
2022/04/17 10:35:17;;;;;;;14.38;4.72;;;;;;;14.83;100.00;101632.59;5067689;28;20448;-85
2022/04/17 10:38:11;;;;;;;10.02;4.07;;;;;;;15.28;100.00;101628.91;5059537;28;20049;-85
2022/04/17 10:40:38;;;;;;;11.57;4.35;;;;;;;15.41;100.00;101613.44;5060437;28;20045;-85
2022/04/17 10:43:06;;;;;;;10.80;4.15;;;;;;;15.34;100.00;101613.69;5060571;28;20132;-85
2022/04/17 10:45:32;;;;;;;9.90;4.43;;;;;;;15.13;100.00;101626.00;5062437;28;20410;-86
2022/04/17 10:48:05;;;;;;;10.23;4.22;;;;;;;15.45;100.00;101625.56;5070418;28;20059;-86
2022/04/17 10:50:42;;;;;;;8.68;3.65;;;;;;;15.66;100.00;101621.97;5058558;28;20079;-85
2022/04/17 10:53:31;;;;;;;9.02;3.60;;;;;;;16.04;100.00;101618.53;5059739;28;20074;-86
2022/04/17 10:56:14;;;;;;;13.02;5.63;;;;;;;15.74;100.00;101613.69;5062167;28;20482;-86
2022/04/17 10:58:54;;;;;;;13.45;3.63;;;;;;;15.98;100.00;101602.97;5058031;28;20049;-86
2022/04/17 11:01:50;;;;;;;13.80;5.53;;;;;;;15.75;100.00;101618.09;5063200;28;20072;-86
2022/04/17 11:04:21;;;;;;;16.70;6.07;;;;;;;15.61;100.00;101596.69;5057973;28;20394;-85
2022/04/17 11:07:06;;;;;;;11.57;5.35;;;;;;;15.59;100.00;101601.19;5060471;28;20418;-86
2022/04/17 11:09:36;;;;;;;12.60;5.53;;;;;;;15.94;100.00;101608.41;5056562;28;20052;-85
2022/04/17 11:12:07;;;;;;;15.23;5.25;;;;;;;15.93;100.00;101608.47;5062114;28;20136;-87
2022/04/17 11:14:34;;;;;;;12.00;5.32;;;;;;;15.94;100.00;101591.69;5063586;28;20037;-87
2022/04/17 11:17:11;;;;;;;13.43;6.38;;;;;;;15.69;100.00;101592.78;5062893;28;20059;-88
2022/04/17 11:19:39;;;;;;;14.88;6.20;;;;;;;16.24;100.00;101593.84;5060520;28;20054;-88
2022/04/17 11:22:08;;;;;;;13.45;6.80;;;;;;;16.25;100.00;101588.44;5063159;28;20052;-87
2022/04/17 11:24:55;;;;;;;12.10;5.25;;;;;;;16.41;100.00;101588.56;5058996;28;20044;-87
2022/04/17 11:27:41;;;;;;;14.00;6.55;;;;;;;16.06;100.00;101540.94;5071482;28;20132;-84
2022/04/17 11:30:27;;;;;;;16.10;7.03;;;;;;;16.05;100.00;101585.91;5063242;28;20131;-85
2022/04/17 11:32:56;;;;;;;13.85;5.93;;;;;;;16.11;100.00;101581.19;5066197;28;20053;-88
2022/04/17 11:35:24;;;;;;;11.68;6.18;;;;;;;16.69;100.00;101584.56;5052632;28;20090;-88